sensor_id;sensor_type;location;lat;lon;timestamp;P1;durP1;ratioP1;P2;durP2;ratioP2
9496;SDS011;4786;51.270;4.456;2022-12-11T00:01:16;23.43;;;18.53;;
9496;SDS011;4786;51.270;4.456;2022-12-11T00:03:45;18.97;;;16.73;;
9496;SDS011;4786;51.270;4.456;2022-12-11T00:06:12;21.57;;;16.93;;
9496;SDS011;4786;51.270;4.456;2022-12-11T00:08:41;20.67;;;16.67;;
9496;SDS011;4786;51.270;4.456;2022-12-11T00:11:07;20.80;;;17.47;;
9496;SDS011;4786;51.270;4.456;2022-12-11T00:13:34;21.17;;;17.63;;
9496;SDS011;4786;51.270;4.456;2022-12-11T00:15:59;21.07;;;17.00;;
9496;SDS011;4786;51.270;4.456;2022-12-11T00:18:26;19.57;;;16.30;;
9496;SDS011;4786;51.270;4.456;2022-12-11T00:20:52;19.40;;;16.20;;
9496;SDS011;4786;51.270;4.456;2022-12-11T00:23:18;20.87;;;17.57;;
9496;SDS011;4786;51.270;4.456;2022-12-11T00:25:45;20.47;;;17.40;;
9496;SDS011;4786;51.270;4.456;2022-12-11T00:28:12;26.73;;;20.57;;
9496;SDS011;4786;51.270;4.456;2022-12-11T00:30:41;21.63;;;18.40;;
9496;SDS011;4786;51.270;4.456;2022-12-11T00:33:07;23.50;;;19.43;;
9496;SDS011;4786;51.270;4.456;2022-12-11T00:35:41;21.50;;;18.30;;
9496;SDS011;4786;51.270;4.456;2022-12-11T00:38:16;21.57;;;17.37;;
9496;SDS011;4786;51.270;4.456;2022-12-11T00:40:44;19.53;;;16.70;;
9496;SDS011;4786;51.270;4.456;2022-12-11T00:43:10;19.70;;;16.73;;
9496;SDS011;4786;51.270;4.456;2022-12-11T00:45:37;21.33;;;17.07;;
9496;SDS011;4786;51.270;4.456;2022-12-11T00:48:05;22.77;;;17.13;;
9496;SDS011;4786;51.270;4.456;2022-12-11T00:50:32;22.07;;;16.80;;
9496;SDS011;4786;51.270;4.456;2022-12-11T00:52:59;19.67;;;16.83;;
9496;SDS011;4786;51.270;4.456;2022-12-11T00:55:25;20.27;;;16.83;;
9496;SDS011;4786;51.270;4.456;2022-12-11T00:57:53;20.93;;;18.07;;
9496;SDS011;4786;51.270;4.456;2022-12-11T01:00:20;19.10;;;16.47;;
9496;SDS011;4786;51.270;4.456;2022-12-11T01:02:46;18.93;;;15.87;;
9496;SDS011;4786;51.270;4.456;2022-12-11T01:05:14;20.73;;;16.23;;
9496;SDS011;4786;51.270;4.456;2022-12-11T01:07:40;22.27;;;17.43;;
9496;SDS011;4786;51.270;4.456;2022-12-11T01:10:06;20.77;;;16.60;;
9496;SDS011;4786;51.270;4.456;2022-12-11T01:15:20;21.27;;;16.43;;
9496;SDS011;4786;51.270;4.456;2022-12-11T01:17:49;19.00;;;16.33;;
9496;SDS011;4786;51.270;4.456;2022-12-11T01:20:15;18.80;;;16.33;;
9496;SDS011;4786;51.270;4.456;2022-12-11T01:22:42;20.07;;;15.40;;
9496;SDS011;4786;51.270;4.456;2022-12-11T01:25:08;20.07;;;15.93;;
9496;SDS011;4786;51.270;4.456;2022-12-11T01:27:35;19.30;;;15.63;;
9496;SDS011;4786;51.270;4.456;2022-12-11T01:30:03;19.70;;;16.03;;
9496;SDS011;4786;51.270;4.456;2022-12-11T01:32:31;19.43;;;15.30;;
9496;SDS011;4786;51.270;4.456;2022-12-11T01:34:59;19.53;;;15.40;;
9496;SDS011;4786;51.270;4.456;2022-12-11T01:37:25;18.17;;;14.73;;
9496;SDS011;4786;51.270;4.456;2022-12-11T01:39:51;16.30;;;13.87;;
9496;SDS011;4786;51.270;4.456;2022-12-11T01:42:17;17.83;;;14.57;;
9496;SDS011;4786;51.270;4.456;2022-12-11T01:47:09;19.40;;;15.87;;
9496;SDS011;4786;51.270;4.456;2022-12-11T01:49:36;17.20;;;15.03;;
9496;SDS011;4786;51.270;4.456;2022-12-11T01:52:13;18.43;;;15.07;;
9496;SDS011;4786;51.270;4.456;2022-12-11T01:54:44;16.87;;;14.00;;
9496;SDS011;4786;51.270;4.456;2022-12-11T01:57:12;16.67;;;12.77;;
9496;SDS011;4786;51.270;4.456;2022-12-11T01:59:40;17.30;;;14.67;;
9496;SDS011;4786;51.270;4.456;2022-12-11T02:04:45;18.13;;;14.70;;
9496;SDS011;4786;51.270;4.456;2022-12-11T02:07:12;18.17;;;15.30;;
9496;SDS011;4786;51.270;4.456;2022-12-11T02:09:38;18.13;;;15.10;;
9496;SDS011;4786;51.270;4.456;2022-12-11T02:26:33;22.87;;;19.40;;
9496;SDS011;4786;51.270;4.456;2022-12-11T02:29:25;22.63;;;20.23;;
9496;SDS011;4786;51.270;4.456;2022-12-11T02:32:05;22.00;;;18.57;;
9496;SDS011;4786;51.270;4.456;2022-12-11T02:35:27;21.77;;;17.30;;
9496;SDS011;4786;51.270;4.456;2022-12-11T02:37:34;22.33;;;16.77;;
9496;SDS011;4786;51.270;4.456;2022-12-11T02:40:02;21.03;;;15.40;;
9496;SDS011;4786;51.270;4.456;2022-12-11T02:42:32;21.47;;;17.77;;
9496;SDS011;4786;51.270;4.456;2022-12-11T02:44:59;20.00;;;17.60;;
9496;SDS011;4786;51.270;4.456;2022-12-11T02:47:27;25.03;;;18.87;;
9496;SDS011;4786;51.270;4.456;2022-12-11T02:49:56;22.67;;;17.77;;
9496;SDS011;4786;51.270;4.456;2022-12-11T02:52:23;21.87;;;17.67;;
9496;SDS011;4786;51.270;4.456;2022-12-11T02:54:51;24.20;;;18.40;;
9496;SDS011;4786;51.270;4.456;2022-12-11T02:57:30;23.70;;;16.07;;
9496;SDS011;4786;51.270;4.456;2022-12-11T02:59:58;20.83;;;15.77;;
9496;SDS011;4786;51.270;4.456;2022-12-11T03:02:24;20.33;;;15.30;;
9496;SDS011;4786;51.270;4.456;2022-12-11T03:04:50;17.97;;;14.47;;
9496;SDS011;4786;51.270;4.456;2022-12-11T03:07:18;17.60;;;14.50;;
9496;SDS011;4786;51.270;4.456;2022-12-11T03:09:47;17.87;;;14.20;;
9496;SDS011;4786;51.270;4.456;2022-12-11T03:12:15;18.63;;;14.77;;
9496;SDS011;4786;51.270;4.456;2022-12-11T03:14:44;19.90;;;14.97;;
9496;SDS011;4786;51.270;4.456;2022-12-11T03:19:44;22.93;;;17.17;;
9496;SDS011;4786;51.270;4.456;2022-12-11T03:22:16;19.33;;;15.43;;
9496;SDS011;4786;51.270;4.456;2022-12-11T03:28:12;21.40;;;16.23;;
9496;SDS011;4786;51.270;4.456;2022-12-11T03:30:45;18.10;;;14.90;;
9496;SDS011;4786;51.270;4.456;2022-12-11T03:33:21;19.90;;;15.67;;
9496;SDS011;4786;51.270;4.456;2022-12-11T03:35:52;19.97;;;15.40;;
9496;SDS011;4786;51.270;4.456;2022-12-11T03:38:25;21.17;;;14.80;;
9496;SDS011;4786;51.270;4.456;2022-12-11T03:40:56;22.40;;;16.40;;
9496;SDS011;4786;51.270;4.456;2022-12-11T03:43:27;21.57;;;16.00;;
9496;SDS011;4786;51.270;4.456;2022-12-11T03:45:56;20.87;;;15.67;;
9496;SDS011;4786;51.270;4.456;2022-12-11T03:48:26;22.87;;;16.20;;
9496;SDS011;4786;51.270;4.456;2022-12-11T03:50:56;20.70;;;15.93;;
9496;SDS011;4786;51.270;4.456;2022-12-11T03:53:23;22.67;;;15.87;;
9496;SDS011;4786;51.270;4.456;2022-12-11T03:55:51;20.07;;;15.97;;
9496;SDS011;4786;51.270;4.456;2022-12-11T03:58:18;21.03;;;15.33;;
9496;SDS011;4786;51.270;4.456;2022-12-11T04:00:44;23.37;;;16.00;;
9496;SDS011;4786;51.270;4.456;2022-12-11T04:03:10;21.03;;;15.87;;
9496;SDS011;4786;51.270;4.456;2022-12-11T04:05:40;21.77;;;15.53;;
9496;SDS011;4786;51.270;4.456;2022-12-11T04:08:09;21.47;;;15.47;;
9496;SDS011;4786;51.270;4.456;2022-12-11T04:10:36;20.43;;;15.07;;
9496;SDS011;4786;51.270;4.456;2022-12-11T04:13:02;21.00;;;15.63;;
9496;SDS011;4786;51.270;4.456;2022-12-11T04:15:28;19.63;;;14.97;;
9496;SDS011;4786;51.270;4.456;2022-12-11T04:17:54;19.40;;;14.60;;
9496;SDS011;4786;51.270;4.456;2022-12-11T04:20:38;19.17;;;14.43;;
9496;SDS011;4786;51.270;4.456;2022-12-11T04:23:22;18.80;;;14.50;;
9496;SDS011;4786;51.270;4.456;2022-12-11T04:26:09;20.27;;;15.03;;
9496;SDS011;4786;51.270;4.456;2022-12-11T04:28:36;18.27;;;14.17;;
9496;SDS011;4786;51.270;4.456;2022-12-11T04:31:02;18.53;;;13.97;;
9496;SDS011;4786;51.270;4.456;2022-12-11T04:33:29;21.80;;;15.03;;
9496;SDS011;4786;51.270;4.456;2022-12-11T04:35:59;21.83;;;15.93;;
9496;SDS011;4786;51.270;4.456;2022-12-11T04:38:25;21.67;;;16.43;;
9496;SDS011;4786;51.270;4.456;2022-12-11T04:40:58;22.07;;;15.13;;
9496;SDS011;4786;51.270;4.456;2022-12-11T04:43:25;22.10;;;16.50;;
9496;SDS011;4786;51.270;4.456;2022-12-11T04:45:59;23.27;;;16.63;;
9496;SDS011;4786;51.270;4.456;2022-12-11T04:48:31;21.23;;;15.57;;
9496;SDS011;4786;51.270;4.456;2022-12-11T04:50:58;24.20;;;15.77;;
9496;SDS011;4786;51.270;4.456;2022-12-11T04:53:24;21.83;;;16.43;;
9496;SDS011;4786;51.270;4.456;2022-12-11T04:55:51;22.10;;;16.07;;
9496;SDS011;4786;51.270;4.456;2022-12-11T04:58:17;23.23;;;17.13;;
9496;SDS011;4786;51.270;4.456;2022-12-11T05:00:43;23.27;;;17.43;;
9496;SDS011;4786;51.270;4.456;2022-12-11T05:03:09;22.23;;;17.03;;
9496;SDS011;4786;51.270;4.456;2022-12-11T05:05:36;22.43;;;16.97;;
9496;SDS011;4786;51.270;4.456;2022-12-11T05:08:02;26.47;;;18.50;;
9496;SDS011;4786;51.270;4.456;2022-12-11T05:10:28;23.03;;;18.23;;
9496;SDS011;4786;51.270;4.456;2022-12-11T05:12:54;24.00;;;17.87;;
9496;SDS011;4786;51.270;4.456;2022-12-11T05:15:20;23.87;;;17.33;;
9496;SDS011;4786;51.270;4.456;2022-12-11T05:17:45;25.97;;;17.77;;
9496;SDS011;4786;51.270;4.456;2022-12-11T05:20:11;28.17;;;18.30;;
9496;SDS011;4786;51.270;4.456;2022-12-11T05:22:37;24.77;;;18.50;;
9496;SDS011;4786;51.270;4.456;2022-12-11T05:25:03;24.13;;;17.93;;
9496;SDS011;4786;51.270;4.456;2022-12-11T05:27:30;24.27;;;18.03;;
9496;SDS011;4786;51.270;4.456;2022-12-11T05:29:56;24.57;;;18.27;;
9496;SDS011;4786;51.270;4.456;2022-12-11T05:32:23;24.33;;;18.17;;
9496;SDS011;4786;51.270;4.456;2022-12-11T05:34:49;30.30;;;19.57;;
9496;SDS011;4786;51.270;4.456;2022-12-11T05:37:16;24.50;;;18.53;;
9496;SDS011;4786;51.270;4.456;2022-12-11T05:39:42;26.20;;;18.13;;
9496;SDS011;4786;51.270;4.456;2022-12-11T05:42:08;23.80;;;18.10;;
9496;SDS011;4786;51.270;4.456;2022-12-11T05:44:34;24.70;;;18.70;;
9496;SDS011;4786;51.270;4.456;2022-12-11T05:47:00;25.37;;;18.67;;
9496;SDS011;4786;51.270;4.456;2022-12-11T05:49:26;26.23;;;20.03;;
9496;SDS011;4786;51.270;4.456;2022-12-11T05:51:52;25.77;;;19.60;;
9496;SDS011;4786;51.270;4.456;2022-12-11T05:54:17;34.50;;;19.27;;
9496;SDS011;4786;51.270;4.456;2022-12-11T05:56:43;25.40;;;19.27;;
9496;SDS011;4786;51.270;4.456;2022-12-11T05:59:10;26.83;;;19.73;;
9496;SDS011;4786;51.270;4.456;2022-12-11T06:01:37;25.23;;;19.23;;
9496;SDS011;4786;51.270;4.456;2022-12-11T06:04:04;27.83;;;20.03;;
9496;SDS011;4786;51.270;4.456;2022-12-11T06:06:31;26.07;;;18.20;;
9496;SDS011;4786;51.270;4.456;2022-12-11T06:08:58;25.63;;;19.37;;
9496;SDS011;4786;51.270;4.456;2022-12-11T06:11:25;26.57;;;19.03;;
9496;SDS011;4786;51.270;4.456;2022-12-11T06:13:53;30.43;;;19.60;;
9496;SDS011;4786;51.270;4.456;2022-12-11T06:16:19;23.57;;;17.67;;
9496;SDS011;4786;51.270;4.456;2022-12-11T06:18:46;25.90;;;19.27;;
9496;SDS011;4786;51.270;4.456;2022-12-11T06:23:42;23.40;;;18.00;;
9496;SDS011;4786;51.270;4.456;2022-12-11T06:26:10;25.10;;;18.67;;
9496;SDS011;4786;51.270;4.456;2022-12-11T06:28:36;26.07;;;19.57;;
9496;SDS011;4786;51.270;4.456;2022-12-11T06:31:02;26.00;;;19.57;;
9496;SDS011;4786;51.270;4.456;2022-12-11T06:33:28;25.50;;;18.97;;
9496;SDS011;4786;51.270;4.456;2022-12-11T06:35:55;25.80;;;19.67;;
9496;SDS011;4786;51.270;4.456;2022-12-11T06:38:21;24.80;;;19.40;;
9496;SDS011;4786;51.270;4.456;2022-12-11T06:40:57;27.30;;;19.40;;
9496;SDS011;4786;51.270;4.456;2022-12-11T06:43:24;25.47;;;19.40;;
9496;SDS011;4786;51.270;4.456;2022-12-11T06:45:50;26.13;;;18.70;;
9496;SDS011;4786;51.270;4.456;2022-12-11T06:48:17;29.03;;;19.33;;
9496;SDS011;4786;51.270;4.456;2022-12-11T06:50:43;27.23;;;19.77;;
9496;SDS011;4786;51.270;4.456;2022-12-11T06:53:10;25.87;;;18.87;;
9496;SDS011;4786;51.270;4.456;2022-12-11T06:55:37;27.33;;;20.00;;
9496;SDS011;4786;51.270;4.456;2022-12-11T06:58:04;25.20;;;20.17;;
9496;SDS011;4786;51.270;4.456;2022-12-11T07:00:30;30.30;;;20.37;;
9496;SDS011;4786;51.270;4.456;2022-12-11T07:02:56;28.40;;;19.73;;
9496;SDS011;4786;51.270;4.456;2022-12-11T07:05:22;29.13;;;21.90;;
9496;SDS011;4786;51.270;4.456;2022-12-11T07:07:48;27.50;;;20.53;;
9496;SDS011;4786;51.270;4.456;2022-12-11T07:10:13;27.77;;;19.90;;
9496;SDS011;4786;51.270;4.456;2022-12-11T07:12:40;26.77;;;21.33;;
9496;SDS011;4786;51.270;4.456;2022-12-11T07:15:06;28.30;;;20.13;;
9496;SDS011;4786;51.270;4.456;2022-12-11T07:17:32;26.73;;;19.93;;
9496;SDS011;4786;51.270;4.456;2022-12-11T07:19:58;33.17;;;22.40;;
9496;SDS011;4786;51.270;4.456;2022-12-11T07:22:24;31.77;;;20.90;;
9496;SDS011;4786;51.270;4.456;2022-12-11T07:24:50;29.03;;;22.10;;
9496;SDS011;4786;51.270;4.456;2022-12-11T07:27:15;31.37;;;22.67;;
9496;SDS011;4786;51.270;4.456;2022-12-11T07:29:41;31.70;;;22.93;;
9496;SDS011;4786;51.270;4.456;2022-12-11T07:32:07;26.77;;;19.27;;
9496;SDS011;4786;51.270;4.456;2022-12-11T07:34:33;28.37;;;20.83;;
9496;SDS011;4786;51.270;4.456;2022-12-11T07:36:59;33.13;;;20.93;;
9496;SDS011;4786;51.270;4.456;2022-12-11T07:39:25;31.73;;;21.83;;
9496;SDS011;4786;51.270;4.456;2022-12-11T07:41:50;34.37;;;22.20;;
9496;SDS011;4786;51.270;4.456;2022-12-11T07:44:16;31.23;;;21.77;;
9496;SDS011;4786;51.270;4.456;2022-12-11T07:46:42;29.93;;;21.30;;
9496;SDS011;4786;51.270;4.456;2022-12-11T07:49:08;29.10;;;20.90;;
9496;SDS011;4786;51.270;4.456;2022-12-11T07:51:34;30.80;;;22.50;;
9496;SDS011;4786;51.270;4.456;2022-12-11T07:54:03;32.50;;;22.33;;
9496;SDS011;4786;51.270;4.456;2022-12-11T07:56:31;32.17;;;22.03;;
9496;SDS011;4786;51.270;4.456;2022-12-11T07:58:59;32.50;;;22.37;;
9496;SDS011;4786;51.270;4.456;2022-12-11T08:01:27;31.33;;;21.77;;
9496;SDS011;4786;51.270;4.456;2022-12-11T08:03:54;28.53;;;20.23;;
9496;SDS011;4786;51.270;4.456;2022-12-11T08:06:25;29.67;;;21.13;;
9496;SDS011;4786;51.270;4.456;2022-12-11T08:08:52;32.73;;;21.30;;
9496;SDS011;4786;51.270;4.456;2022-12-11T08:11:19;30.47;;;21.47;;
9496;SDS011;4786;51.270;4.456;2022-12-11T08:13:45;32.83;;;22.63;;
9496;SDS011;4786;51.270;4.456;2022-12-11T08:16:12;32.37;;;21.13;;
9496;SDS011;4786;51.270;4.456;2022-12-11T08:18:39;30.83;;;21.23;;
9496;SDS011;4786;51.270;4.456;2022-12-11T08:21:06;33.07;;;21.87;;
9496;SDS011;4786;51.270;4.456;2022-12-11T08:23:33;33.83;;;22.83;;
9496;SDS011;4786;51.270;4.456;2022-12-11T08:26:03;32.90;;;22.63;;
9496;SDS011;4786;51.270;4.456;2022-12-11T08:28:31;34.90;;;23.57;;
9496;SDS011;4786;51.270;4.456;2022-12-11T08:30:58;35.80;;;23.37;;
9496;SDS011;4786;51.270;4.456;2022-12-11T08:33:24;39.03;;;24.63;;
9496;SDS011;4786;51.270;4.456;2022-12-11T08:35:51;36.90;;;25.70;;
9496;SDS011;4786;51.270;4.456;2022-12-11T08:38:17;39.10;;;26.17;;
9496;SDS011;4786;51.270;4.456;2022-12-11T08:40:43;35.80;;;24.67;;
9496;SDS011;4786;51.270;4.456;2022-12-11T08:43:09;37.80;;;24.27;;
9496;SDS011;4786;51.270;4.456;2022-12-11T08:45:34;35.83;;;25.43;;
9496;SDS011;4786;51.270;4.456;2022-12-11T08:48:00;38.10;;;25.63;;
9496;SDS011;4786;51.270;4.456;2022-12-11T08:50:26;42.20;;;26.00;;
9496;SDS011;4786;51.270;4.456;2022-12-11T08:52:52;36.97;;;24.63;;
9496;SDS011;4786;51.270;4.456;2022-12-11T08:55:18;41.53;;;25.93;;
9496;SDS011;4786;51.270;4.456;2022-12-11T08:57:46;37.80;;;24.67;;
9496;SDS011;4786;51.270;4.456;2022-12-11T09:00:12;33.80;;;23.83;;
9496;SDS011;4786;51.270;4.456;2022-12-11T09:02:39;36.93;;;25.43;;
9496;SDS011;4786;51.270;4.456;2022-12-11T09:05:05;36.97;;;24.27;;
9496;SDS011;4786;51.270;4.456;2022-12-11T09:07:33;35.03;;;23.80;;
9496;SDS011;4786;51.270;4.456;2022-12-11T09:10:00;33.80;;;23.27;;
9496;SDS011;4786;51.270;4.456;2022-12-11T09:12:26;33.33;;;23.40;;
9496;SDS011;4786;51.270;4.456;2022-12-11T09:14:52;33.47;;;23.03;;
9496;SDS011;4786;51.270;4.456;2022-12-11T09:17:18;37.97;;;24.00;;
9496;SDS011;4786;51.270;4.456;2022-12-11T09:19:44;37.43;;;24.20;;
9496;SDS011;4786;51.270;4.456;2022-12-11T09:22:10;33.23;;;22.93;;
9496;SDS011;4786;51.270;4.456;2022-12-11T09:24:36;33.63;;;22.63;;
9496;SDS011;4786;51.270;4.456;2022-12-11T09:27:04;32.10;;;21.20;;
9496;SDS011;4786;51.270;4.456;2022-12-11T09:29:29;32.53;;;22.20;;
9496;SDS011;4786;51.270;4.456;2022-12-11T09:31:56;30.67;;;20.50;;
9496;SDS011;4786;51.270;4.456;2022-12-11T09:34:22;33.73;;;22.50;;
9496;SDS011;4786;51.270;4.456;2022-12-11T09:36:49;31.90;;;21.37;;
9496;SDS011;4786;51.270;4.456;2022-12-11T09:39:15;31.50;;;20.97;;
9496;SDS011;4786;51.270;4.456;2022-12-11T09:41:47;33.07;;;21.80;;
9496;SDS011;4786;51.270;4.456;2022-12-11T09:44:37;28.40;;;19.10;;
9496;SDS011;4786;51.270;4.456;2022-12-11T09:52:50;29.90;;;20.33;;
9496;SDS011;4786;51.270;4.456;2022-12-11T09:55:19;29.77;;;19.30;;
9496;SDS011;4786;51.270;4.456;2022-12-11T09:58:12;25.40;;;19.20;;
9496;SDS011;4786;51.270;4.456;2022-12-11T10:14:25;29.80;;;19.83;;
9496;SDS011;4786;51.270;4.456;2022-12-11T10:17:21;29.13;;;19.73;;
9496;SDS011;4786;51.270;4.456;2022-12-11T10:19:51;27.63;;;19.60;;
9496;SDS011;4786;51.270;4.456;2022-12-11T10:22:20;28.00;;;18.70;;
9496;SDS011;4786;51.270;4.456;2022-12-11T10:24:55;28.93;;;19.07;;
9496;SDS011;4786;51.270;4.456;2022-12-11T10:27:28;29.50;;;19.43;;
9496;SDS011;4786;51.270;4.456;2022-12-11T10:32:33;25.83;;;18.33;;
9496;SDS011;4786;51.270;4.456;2022-12-11T10:35:08;24.90;;;19.33;;
9496;SDS011;4786;51.270;4.456;2022-12-11T10:38:09;30.03;;;21.27;;
9496;SDS011;4786;51.270;4.456;2022-12-11T10:40:53;26.00;;;19.23;;
9496;SDS011;4786;51.270;4.456;2022-12-11T10:43:38;27.33;;;19.80;;
9496;SDS011;4786;51.270;4.456;2022-12-11T10:46:11;26.10;;;17.93;;
9496;SDS011;4786;51.270;4.456;2022-12-11T10:48:46;25.77;;;19.03;;
9496;SDS011;4786;51.270;4.456;2022-12-11T10:51:14;28.73;;;19.37;;
9496;SDS011;4786;51.270;4.456;2022-12-11T10:53:40;27.13;;;19.30;;
9496;SDS011;4786;51.270;4.456;2022-12-11T10:56:08;27.47;;;18.90;;
9496;SDS011;4786;51.270;4.456;2022-12-11T10:58:36;28.77;;;19.30;;
9496;SDS011;4786;51.270;4.456;2022-12-11T11:01:15;27.97;;;19.57;;
9496;SDS011;4786;51.270;4.456;2022-12-11T11:06:40;27.30;;;19.33;;
9496;SDS011;4786;51.270;4.456;2022-12-11T11:09:26;29.37;;;19.50;;
9496;SDS011;4786;51.270;4.456;2022-12-11T11:12:01;27.33;;;18.43;;
9496;SDS011;4786;51.270;4.456;2022-12-11T11:14:27;28.13;;;18.13;;
9496;SDS011;4786;51.270;4.456;2022-12-11T11:16:54;25.97;;;18.83;;
9496;SDS011;4786;51.270;4.456;2022-12-11T11:19:34;30.57;;;19.80;;
9496;SDS011;4786;51.270;4.456;2022-12-11T11:22:04;26.50;;;19.17;;
9496;SDS011;4786;51.270;4.456;2022-12-11T11:24:46;27.10;;;19.63;;
9496;SDS011;4786;51.270;4.456;2022-12-11T11:27:28;29.17;;;19.63;;
9496;SDS011;4786;51.270;4.456;2022-12-11T11:30:00;26.20;;;19.40;;
9496;SDS011;4786;51.270;4.456;2022-12-11T11:32:34;27.30;;;19.23;;
9496;SDS011;4786;51.270;4.456;2022-12-11T11:35:27;27.17;;;19.70;;
9496;SDS011;4786;51.270;4.456;2022-12-11T11:40:37;25.37;;;18.80;;
9496;SDS011;4786;51.270;4.456;2022-12-11T11:45:56;27.17;;;19.07;;
9496;SDS011;4786;51.270;4.456;2022-12-11T11:48:32;26.47;;;19.00;;
9496;SDS011;4786;51.270;4.456;2022-12-11T11:51:23;25.70;;;19.00;;
9496;SDS011;4786;51.270;4.456;2022-12-11T11:53:55;26.57;;;19.07;;
9496;SDS011;4786;51.270;4.456;2022-12-11T11:56:25;26.97;;;18.83;;
9496;SDS011;4786;51.270;4.456;2022-12-11T12:01:49;26.03;;;18.73;;
9496;SDS011;4786;51.270;4.456;2022-12-11T12:04:18;26.73;;;19.13;;
9496;SDS011;4786;51.270;4.456;2022-12-11T12:12:22;26.30;;;19.17;;
9496;SDS011;4786;51.270;4.456;2022-12-11T12:21:17;23.07;;;16.90;;
9496;SDS011;4786;51.270;4.456;2022-12-11T12:26:40;23.00;;;16.97;;
9496;SDS011;4786;51.270;4.456;2022-12-11T12:42:31;22.27;;;15.97;;
9496;SDS011;4786;51.270;4.456;2022-12-11T12:47:41;25.07;;;16.77;;
9496;SDS011;4786;51.270;4.456;2022-12-11T12:50:11;23.17;;;16.60;;
9496;SDS011;4786;51.270;4.456;2022-12-11T12:52:43;22.87;;;16.67;;
9496;SDS011;4786;51.270;4.456;2022-12-11T12:55:26;26.10;;;16.53;;
9496;SDS011;4786;51.270;4.456;2022-12-11T12:57:59;22.10;;;15.67;;
9496;SDS011;4786;51.270;4.456;2022-12-11T13:03:13;29.10;;;18.50;;
9496;SDS011;4786;51.270;4.456;2022-12-11T13:06:26;23.87;;;17.73;;
9496;SDS011;4786;51.270;4.456;2022-12-11T13:08:41;26.00;;;16.80;;
9496;SDS011;4786;51.270;4.456;2022-12-11T13:11:11;23.90;;;17.40;;
9496;SDS011;4786;51.270;4.456;2022-12-11T13:13:41;25.57;;;18.47;;
9496;SDS011;4786;51.270;4.456;2022-12-11T13:18:46;25.10;;;17.57;;
9496;SDS011;4786;51.270;4.456;2022-12-11T13:24:09;22.97;;;16.57;;
9496;SDS011;4786;51.270;4.456;2022-12-11T13:26:37;24.63;;;17.40;;
9496;SDS011;4786;51.270;4.456;2022-12-11T13:29:03;24.80;;;17.20;;
9496;SDS011;4786;51.270;4.456;2022-12-11T13:31:34;21.13;;;15.23;;
9496;SDS011;4786;51.270;4.456;2022-12-11T13:34:13;22.63;;;16.60;;
9496;SDS011;4786;51.270;4.456;2022-12-11T13:36:45;21.07;;;16.33;;
9496;SDS011;4786;51.270;4.456;2022-12-11T13:39:18;24.63;;;16.07;;
9496;SDS011;4786;51.270;4.456;2022-12-11T13:41:54;21.67;;;13.67;;
9496;SDS011;4786;51.270;4.456;2022-12-11T13:44:45;21.73;;;12.13;;
9496;SDS011;4786;51.270;4.456;2022-12-11T13:47:13;16.07;;;10.07;;
9496;SDS011;4786;51.270;4.456;2022-12-11T13:49:43;16.57;;;10.43;;
9496;SDS011;4786;51.270;4.456;2022-12-11T13:52:17;17.67;;;11.07;;
9496;SDS011;4786;51.270;4.456;2022-12-11T13:54:47;17.97;;;11.07;;
9496;SDS011;4786;51.270;4.456;2022-12-11T13:57:18;19.63;;;11.10;;
9496;SDS011;4786;51.270;4.456;2022-12-11T13:59:53;20.27;;;11.67;;
9496;SDS011;4786;51.270;4.456;2022-12-11T14:05:00;21.10;;;11.80;;
9496;SDS011;4786;51.270;4.456;2022-12-11T14:07:33;24.10;;;12.00;;
9496;SDS011;4786;51.270;4.456;2022-12-11T14:10:04;18.00;;;11.83;;
9496;SDS011;4786;51.270;4.456;2022-12-11T14:12:33;23.27;;;12.43;;
9496;SDS011;4786;51.270;4.456;2022-12-11T14:15:01;19.50;;;11.73;;
9496;SDS011;4786;51.270;4.456;2022-12-11T14:17:29;22.27;;;12.23;;
9496;SDS011;4786;51.270;4.456;2022-12-11T14:19:59;19.63;;;12.13;;
9496;SDS011;4786;51.270;4.456;2022-12-11T14:22:28;32.83;;;14.13;;
9496;SDS011;4786;51.270;4.456;2022-12-11T14:24:56;24.40;;;12.33;;
9496;SDS011;4786;51.270;4.456;2022-12-11T14:27:23;23.17;;;13.10;;
9496;SDS011;4786;51.270;4.456;2022-12-11T14:29:51;21.60;;;13.77;;
9496;SDS011;4786;51.270;4.456;2022-12-11T14:32:21;24.10;;;13.07;;
9496;SDS011;4786;51.270;4.456;2022-12-11T14:34:56;21.67;;;12.83;;
9496;SDS011;4786;51.270;4.456;2022-12-11T14:37:22;23.50;;;12.93;;
9496;SDS011;4786;51.270;4.456;2022-12-11T14:39:59;22.27;;;13.50;;
9496;SDS011;4786;51.270;4.456;2022-12-11T14:42:30;18.77;;;11.83;;
9496;SDS011;4786;51.270;4.456;2022-12-11T14:45:04;22.43;;;14.13;;
9496;SDS011;4786;51.270;4.456;2022-12-11T14:47:41;26.77;;;13.90;;
9496;SDS011;4786;51.270;4.456;2022-12-11T14:52:46;19.90;;;13.40;;
9496;SDS011;4786;51.270;4.456;2022-12-11T14:55:19;23.97;;;15.07;;
9496;SDS011;4786;51.270;4.456;2022-12-11T14:57:49;26.27;;;16.00;;
9496;SDS011;4786;51.270;4.456;2022-12-11T15:03:05;26.47;;;16.40;;
9496;SDS011;4786;51.270;4.456;2022-12-11T15:05:49;26.27;;;15.97;;
9496;SDS011;4786;51.270;4.456;2022-12-11T15:08:20;26.23;;;16.30;;
9496;SDS011;4786;51.270;4.456;2022-12-11T15:13:38;27.77;;;16.53;;
9496;SDS011;4786;51.270;4.456;2022-12-11T15:16:23;24.00;;;16.10;;
9496;SDS011;4786;51.270;4.456;2022-12-11T15:18:52;22.90;;;14.97;;
9496;SDS011;4786;51.270;4.456;2022-12-11T15:21:27;26.50;;;16.37;;
9496;SDS011;4786;51.270;4.456;2022-12-11T15:23:59;27.30;;;16.83;;
9496;SDS011;4786;51.270;4.456;2022-12-11T15:26:46;24.20;;;15.50;;
9496;SDS011;4786;51.270;4.456;2022-12-11T15:34:42;29.10;;;18.43;;
9496;SDS011;4786;51.270;4.456;2022-12-11T15:37:16;24.07;;;15.80;;
9496;SDS011;4786;51.270;4.456;2022-12-11T15:39:49;25.50;;;16.03;;
9496;SDS011;4786;51.270;4.456;2022-12-11T15:42:31;28.43;;;17.07;;
9496;SDS011;4786;51.270;4.456;2022-12-11T15:45:06;26.90;;;17.43;;
9496;SDS011;4786;51.270;4.456;2022-12-11T15:47:39;27.70;;;18.23;;
9496;SDS011;4786;51.270;4.456;2022-12-11T15:50:16;28.93;;;18.43;;
9496;SDS011;4786;51.270;4.456;2022-12-11T15:52:45;27.10;;;17.43;;
9496;SDS011;4786;51.270;4.456;2022-12-11T15:55:11;28.97;;;18.20;;
9496;SDS011;4786;51.270;4.456;2022-12-11T15:57:38;25.77;;;16.70;;
9496;SDS011;4786;51.270;4.456;2022-12-11T16:00:09;25.80;;;18.00;;
9496;SDS011;4786;51.270;4.456;2022-12-11T16:02:39;25.17;;;16.80;;
9496;SDS011;4786;51.270;4.456;2022-12-11T16:05:04;24.80;;;16.57;;
9496;SDS011;4786;51.270;4.456;2022-12-11T16:07:30;27.70;;;18.87;;
9496;SDS011;4786;51.270;4.456;2022-12-11T16:09:57;28.13;;;18.13;;
9496;SDS011;4786;51.270;4.456;2022-12-11T16:12:23;24.63;;;17.07;;
9496;SDS011;4786;51.270;4.456;2022-12-11T16:14:49;29.37;;;19.43;;
9496;SDS011;4786;51.270;4.456;2022-12-11T16:17:15;27.47;;;19.57;;
9496;SDS011;4786;51.270;4.456;2022-12-11T16:19:41;26.57;;;18.20;;
9496;SDS011;4786;51.270;4.456;2022-12-11T16:22:09;27.93;;;19.37;;
9496;SDS011;4786;51.270;4.456;2022-12-11T16:24:36;27.20;;;18.57;;
9496;SDS011;4786;51.270;4.456;2022-12-11T16:27:03;30.07;;;19.93;;
9496;SDS011;4786;51.270;4.456;2022-12-11T16:29:33;28.70;;;19.10;;
9496;SDS011;4786;51.270;4.456;2022-12-11T16:32:03;30.13;;;19.67;;
9496;SDS011;4786;51.270;4.456;2022-12-11T16:34:31;29.87;;;19.83;;
9496;SDS011;4786;51.270;4.456;2022-12-11T16:36:58;31.60;;;18.83;;
9496;SDS011;4786;51.270;4.456;2022-12-11T16:39:24;28.30;;;19.60;;
9496;SDS011;4786;51.270;4.456;2022-12-11T16:41:50;26.93;;;18.13;;
9496;SDS011;4786;51.270;4.456;2022-12-11T16:44:20;30.57;;;18.90;;
9496;SDS011;4786;51.270;4.456;2022-12-11T16:46:47;25.73;;;17.33;;
9496;SDS011;4786;51.270;4.456;2022-12-11T16:49:13;27.70;;;18.37;;
9496;SDS011;4786;51.270;4.456;2022-12-11T16:51:39;29.87;;;18.47;;
9496;SDS011;4786;51.270;4.456;2022-12-11T16:54:05;31.77;;;19.47;;
9496;SDS011;4786;51.270;4.456;2022-12-11T16:56:31;30.17;;;19.50;;
9496;SDS011;4786;51.270;4.456;2022-12-11T16:58:56;29.90;;;18.97;;
9496;SDS011;4786;51.270;4.456;2022-12-11T17:01:23;28.07;;;18.90;;